createdAt,value
2022-09-12T00:01:51.440Z,99.90
2022-09-12T00:06:45.361Z,99.90
2022-09-12T00:09:12.841Z,99.90
2022-09-12T00:11:40.634Z,99.90
2022-09-12T00:14:07.985Z,99.90
2022-09-12T00:16:35.277Z,99.90
2022-09-12T00:19:02.120Z,99.90
2022-09-12T00:21:29.104Z,99.90
2022-09-12T00:23:55.841Z,99.90
2022-09-12T00:26:22.599Z,99.90
2022-09-12T00:28:49.289Z,99.90
2022-09-12T00:31:21.102Z,99.90
2022-09-12T00:33:47.850Z,99.90
2022-09-12T00:36:16.388Z,99.90
2022-09-12T00:38:43.555Z,99.90
2022-09-12T00:41:45.536Z,99.90
2022-09-12T00:44:12.110Z,99.90
2022-09-12T00:46:45.759Z,99.90
2022-09-12T00:49:25.569Z,99.90
2022-09-12T00:52:16.467Z,99.90
2022-09-12T00:55:02.408Z,99.90
2022-09-12T00:57:53.506Z,99.90
2022-09-12T01:00:21.529Z,99.90
2022-09-12T01:02:58.664Z,99.90
2022-09-12T01:05:25.353Z,99.90
2022-09-12T01:07:52.109Z,99.90
2022-09-12T01:10:18.939Z,99.90
2022-09-12T01:12:45.667Z,99.90
2022-09-12T01:15:12.402Z,99.90
2022-09-12T01:18:04.493Z,99.90
2022-09-12T01:20:43.680Z,99.90
2022-09-12T01:23:19.527Z,99.90
2022-09-12T01:25:57.427Z,99.90
2022-09-12T01:28:48.999Z,99.90
2022-09-12T01:31:30.908Z,99.90
2022-09-12T01:34:03.868Z,99.90
2022-09-12T01:36:38.457Z,99.90
2022-09-12T01:39:18.320Z,99.90
2022-09-12T01:42:22.509Z,99.90
2022-09-12T01:45:03.254Z,99.90
2022-09-12T01:47:34.166Z,99.90
2022-09-12T01:50:03.487Z,99.90
2022-09-12T01:52:37.856Z,99.90
2022-09-12T01:55:15.012Z,99.90
2022-09-12T01:58:12.569Z,99.90
2022-09-12T02:00:49.978Z,99.90
2022-09-12T02:03:24.085Z,99.90
2022-09-12T02:05:57.019Z,99.90
2022-09-12T02:08:28.245Z,99.90
2022-09-12T02:11:05.805Z,99.90
2022-09-12T02:13:49.437Z,99.90
2022-09-12T02:16:29.370Z,99.90
2022-09-12T02:19:02.480Z,99.90
2022-09-12T02:21:32.831Z,99.90
2022-09-12T02:24:01.355Z,99.90
2022-09-12T02:26:41.468Z,99.90
2022-09-12T02:31:48.271Z,99.90
2022-09-12T02:34:42.430Z,99.90
2022-09-12T02:37:34.204Z,99.90
2022-09-12T02:40:00.911Z,99.90
2022-09-12T02:42:27.651Z,99.90
2022-09-12T02:44:55.337Z,99.90
2022-09-12T02:47:31.800Z,99.90
2022-09-12T02:49:58.681Z,99.90
2022-09-12T02:52:26.027Z,99.90
2022-09-12T02:54:52.687Z,99.90
2022-09-12T02:57:23.093Z,99.90
2022-09-12T02:59:51.311Z,99.90
2022-09-12T03:02:54.387Z,99.90
2022-09-12T03:05:44.348Z,99.90
2022-09-12T03:08:39.291Z,99.90
2022-09-12T03:11:18.300Z,99.90
2022-09-12T03:13:58.144Z,99.90
2022-09-12T03:16:41.191Z,99.90
2022-09-12T03:19:16.308Z,99.90
2022-09-12T03:21:53.071Z,99.90
2022-09-12T03:24:24.352Z,99.90
2022-09-12T03:26:55.174Z,99.90
2022-09-12T03:29:21.973Z,99.90
2022-09-12T03:31:50.723Z,99.90
2022-09-12T03:34:17.832Z,99.90
2022-09-12T03:36:44.442Z,99.90
2022-09-12T03:41:38.077Z,99.90
2022-09-12T03:44:04.716Z,99.90
2022-09-12T03:46:31.355Z,99.90
2022-09-12T03:48:58.055Z,99.90
2022-09-12T03:51:24.707Z,99.90
2022-09-12T03:53:51.369Z,99.90
2022-09-12T03:56:19.350Z,99.90
2022-09-12T03:58:46.149Z,99.90
2022-09-12T04:01:14.712Z,99.90
2022-09-12T04:03:46.142Z,99.90
2022-09-12T04:06:14.753Z,99.90
2022-09-12T04:08:42.588Z,99.90
2022-09-12T04:11:11.594Z,99.90
2022-09-12T04:13:38.837Z,99.90
2022-09-12T04:16:05.681Z,99.90
2022-09-12T04:18:32.429Z,99.90
2022-09-12T04:23:26.420Z,99.90
2022-09-12T04:26:00.008Z,99.90
2022-09-12T04:28:26.890Z,99.90
2022-09-12T04:30:53.569Z,99.90
2022-09-12T04:33:20.265Z,99.90
2022-09-12T04:35:47.125Z,99.90
2022-09-12T04:38:13.854Z,99.90
2022-09-12T04:40:40.616Z,99.90
2022-09-12T04:43:10.157Z,99.90
2022-09-12T04:45:39.124Z,99.90
2022-09-12T04:48:05.759Z,99.90
2022-09-12T04:52:59.709Z,99.90
2022-09-12T04:55:26.451Z,99.90
2022-09-12T04:57:53.100Z,99.90
2022-09-12T05:00:20.528Z,99.90
2022-09-12T05:02:47.315Z,99.90
2022-09-12T05:05:14.074Z,99.90
2022-09-12T05:07:40.824Z,99.90
2022-09-12T05:10:08.203Z,99.90
2022-09-12T05:12:36.076Z,99.90
2022-09-12T05:15:03.024Z,99.90
2022-09-12T05:17:30.273Z,99.90
2022-09-12T05:19:57.254Z,99.90
2022-09-12T05:22:23.942Z,99.90
2022-09-12T05:27:17.688Z,99.90
2022-09-12T05:29:44.487Z,99.90
2022-09-12T05:32:12.507Z,99.90
2022-09-12T05:34:41.945Z,99.90
2022-09-12T05:37:10.924Z,99.90
2022-09-12T05:39:42.577Z,99.90
2022-09-12T05:42:09.432Z,99.90
2022-09-12T05:44:36.597Z,99.90
2022-09-12T05:47:03.357Z,99.90
2022-09-12T05:51:57.191Z,99.90
2022-09-12T05:54:25.541Z,99.90
2022-09-12T05:56:53.882Z,99.90
2022-09-12T05:59:21.321Z,99.90
2022-09-12T06:01:48.690Z,99.90
2022-09-12T06:04:15.849Z,99.90
2022-09-12T06:06:45.071Z,99.90
2022-09-12T06:09:12.619Z,99.90
2022-09-12T06:11:40.928Z,99.90
2022-09-12T06:14:07.777Z,99.90
2022-09-12T06:16:34.915Z,99.90
2022-09-12T06:19:04.018Z,99.90
2022-09-12T06:21:35.274Z,99.90
2022-09-12T06:24:02.327Z,99.90
2022-09-12T06:26:29.215Z,99.90
2022-09-12T06:28:56.608Z,99.90
2022-09-12T06:31:25.272Z,99.90
2022-09-12T06:33:52.811Z,99.90
2022-09-12T06:36:22.353Z,99.90
2022-09-12T06:38:53.232Z,99.90
2022-09-12T06:41:19.845Z,99.90
2022-09-12T06:43:46.460Z,99.90
2022-09-12T06:46:13.187Z,99.90
2022-09-12T06:48:42.088Z,99.90
2022-09-12T06:51:13.813Z,99.90
2022-09-12T06:53:41.027Z,99.90
2022-09-12T06:56:10.886Z,99.90
2022-09-12T06:58:37.653Z,99.90
2022-09-12T07:01:08.258Z,99.90
2022-09-12T07:03:35.698Z,99.90
2022-09-12T07:06:07.157Z,99.90
2022-09-12T07:08:34.555Z,99.90
2022-09-12T07:11:08.068Z,99.90
2022-09-12T07:13:34.715Z,99.90
2022-09-12T07:16:05.453Z,99.90
2022-09-12T07:18:35.628Z,99.90
2022-09-12T07:35:48.173Z,99.90
2022-09-12T09:19:02.402Z,99.90
2022-09-12T09:21:33.171Z,99.90
2022-09-12T09:24:10.040Z,99.90
2022-09-12T09:26:50.789Z,99.90
2022-09-12T09:29:19.999Z,99.90
2022-09-12T09:31:50.871Z,99.90
2022-09-12T09:34:25.847Z,99.90
2022-09-12T09:36:55.910Z,99.90
2022-09-12T09:39:30.447Z,99.90
2022-09-12T09:42:12.124Z,99.90
2022-09-12T09:44:38.764Z,99.90
2022-09-12T09:47:05.558Z,99.90
2022-09-12T09:49:33.476Z,99.90
2022-09-12T09:52:01.050Z,99.90
2022-09-12T09:54:43.246Z,99.90
2022-09-12T09:57:34.553Z,99.90
2022-09-12T10:00:26.910Z,99.90
2022-09-12T10:03:14.002Z,99.90
2022-09-12T10:05:54.461Z,99.90
2022-09-12T10:08:22.086Z,99.90
2022-09-12T10:11:02.326Z,99.90
2022-09-12T10:13:31.080Z,99.90
2022-09-12T10:16:00.358Z,99.90
2022-09-12T10:18:43.254Z,99.90
2022-09-12T10:21:27.953Z,99.90
2022-09-12T10:24:18.583Z,99.90
2022-09-12T10:26:47.601Z,99.90
2022-09-12T10:29:28.187Z,99.90
2022-09-12T10:31:56.020Z,99.90
2022-09-12T10:34:32.334Z,99.90
2022-09-12T10:37:06.080Z,99.90
2022-09-12T10:39:34.239Z,99.90
2022-09-12T10:42:01.393Z,99.90
2022-09-12T10:44:30.703Z,99.90
2022-09-12T10:46:57.868Z,99.90
2022-09-12T10:49:27.093Z,99.90
2022-09-12T10:51:54.374Z,99.90
2022-09-12T10:54:25.131Z,99.90
2022-09-12T10:57:11.827Z,99.90
2022-09-12T10:59:41.439Z,99.90
2022-09-12T11:02:26.763Z,99.90
2022-09-12T11:05:09.433Z,99.90
2022-09-12T11:07:47.228Z,99.90
2022-09-12T11:10:44.396Z,99.90
2022-09-12T11:13:29.958Z,99.90
2022-09-12T11:16:27.373Z,99.90
2022-09-12T11:19:15.568Z,99.90
2022-09-12T11:22:11.566Z,99.90
2022-09-12T11:24:56.649Z,99.90
2022-09-12T11:27:31.326Z,99.90
2022-09-12T11:29:59.622Z,99.90
2022-09-12T11:33:07.614Z,99.90
2022-09-12T11:35:35.588Z,99.90
2022-09-12T11:38:21.191Z,99.90
2022-09-12T11:40:56.731Z,99.90
2022-09-12T11:43:47.412Z,99.90
2022-09-12T11:46:29.985Z,99.90
2022-09-12T11:49:05.547Z,99.90
2022-09-12T11:52:00.436Z,99.90
2022-09-12T11:54:39.511Z,99.90
2022-09-12T11:57:12.330Z,99.90
2022-09-12T11:59:54.353Z,99.90
2022-09-12T12:02:28.392Z,99.90
2022-09-12T12:05:04.978Z,99.90
2022-09-12T12:07:45.429Z,99.90
2022-09-12T12:10:26.241Z,99.90
2022-09-12T12:12:53.990Z,99.90
2022-09-12T12:15:20.633Z,99.90
2022-09-12T12:18:15.004Z,99.90
2022-09-12T12:20:41.716Z,99.90
2022-09-12T12:23:23.659Z,99.90
2022-09-12T12:25:55.246Z,99.90
2022-09-12T12:28:50.447Z,99.90
2022-09-12T12:31:17.157Z,99.90
2022-09-12T12:33:43.902Z,99.90
2022-09-12T12:36:11.396Z,99.90
2022-09-12T12:38:38.894Z,99.90
2022-09-12T12:41:17.773Z,99.90
2022-09-12T12:43:44.907Z,99.90
2022-09-12T12:46:12.962Z,99.90
2022-09-12T12:48:56.442Z,99.90
2022-09-12T12:51:49.599Z,99.90
2022-09-12T12:54:45.344Z,99.90
2022-09-12T12:57:28.486Z,99.90
2022-09-12T12:59:56.694Z,99.90
2022-09-12T13:02:34.562Z,99.90
2022-09-12T13:05:02.502Z,99.90
2022-09-12T13:07:31.468Z,99.90
2022-09-12T13:09:58.230Z,99.90
2022-09-12T13:12:44.295Z,99.90
2022-09-12T13:15:47.229Z,99.90
2022-09-12T13:18:28.536Z,99.90
2022-09-12T13:21:21.534Z,99.90
2022-09-12T13:24:04.203Z,99.90
2022-09-12T13:26:35.920Z,99.50
2022-09-12T13:29:16.092Z,99.90
2022-09-12T13:31:46.735Z,99.70
2022-09-12T13:34:19.992Z,99.90
2022-09-12T13:37:13.218Z,99.90
2022-09-12T13:40:12.113Z,99.90
2022-09-12T13:42:42.643Z,99.90
2022-09-12T13:45:23.134Z,99.90
2022-09-12T13:48:22.155Z,99.90
2022-09-12T13:50:51.149Z,99.90
2022-09-12T13:53:19.936Z,99.90
2022-09-12T13:55:50.221Z,99.90
2022-09-12T13:58:24.536Z,99.90
2022-09-12T14:01:05.568Z,99.90
2022-09-12T14:03:55.732Z,99.90
2022-09-12T14:06:26.303Z,99.90
2022-09-12T14:08:53.415Z,99.90
2022-09-12T14:11:29.782Z,99.90
2022-09-12T14:13:57.202Z,99.60
2022-09-12T14:16:24.065Z,99.90
2022-09-12T14:18:51.939Z,97.60
2022-09-12T14:21:35.630Z,98.80
2022-09-12T14:24:03.635Z,98.90
2022-09-12T14:26:32.465Z,99.90
2022-09-12T14:28:59.251Z,99.90
2022-09-12T14:31:30.704Z,99.90
2022-09-12T14:34:15.127Z,99.00
2022-09-12T14:36:49.994Z,98.70
2022-09-12T14:39:39.882Z,99.90
2022-09-12T14:42:14.616Z,99.90
2022-09-12T14:44:56.697Z,98.40
2022-09-12T14:47:24.985Z,99.40
2022-09-12T14:49:51.767Z,97.70
2022-09-12T14:52:26.298Z,98.10
2022-09-12T14:55:16.216Z,98.80
2022-09-12T14:57:44.544Z,99.90
2022-09-12T15:00:20.260Z,99.40
2022-09-12T15:02:48.271Z,99.40
2022-09-12T15:05:20.231Z,99.00
2022-09-12T15:07:54.855Z,98.50
2022-09-12T15:10:25.292Z,99.30
2022-09-12T15:13:10.335Z,99.60
2022-09-12T15:15:37.776Z,99.50
2022-09-12T15:18:06.842Z,98.60
2022-09-12T15:20:35.631Z,99.20
2022-09-12T15:23:02.298Z,98.60
2022-09-12T15:25:29.038Z,98.90
2022-09-12T15:27:56.055Z,98.20
2022-09-12T15:30:22.720Z,98.40
2022-09-12T15:32:49.334Z,98.80
2022-09-12T15:35:17.972Z,99.70
2022-09-12T15:37:44.759Z,98.70
2022-09-12T15:40:11.964Z,99.40
2022-09-12T15:42:38.736Z,99.90
2022-09-12T15:45:26.117Z,99.90
2022-09-12T15:47:52.763Z,99.80
2022-09-12T15:50:19.521Z,99.10
2022-09-12T15:52:46.737Z,99.60
2022-09-12T15:55:17.752Z,99.80
2022-09-12T15:57:44.606Z,99.10
2022-09-12T16:00:14.820Z,99.90
2022-09-12T16:02:41.701Z,99.90
2022-09-12T16:05:13.269Z,99.90
2022-09-12T16:07:40.075Z,99.90
2022-09-12T16:10:07.145Z,99.90
2022-09-12T16:12:33.795Z,99.90
2022-09-12T16:17:27.622Z,99.90
2022-09-12T16:19:54.402Z,99.90
2022-09-12T16:22:21.115Z,99.90
2022-09-12T16:24:47.884Z,99.90
2022-09-12T16:29:41.869Z,99.90
2022-09-12T16:32:08.568Z,99.90
2022-09-12T16:34:35.377Z,99.90
2022-09-12T16:39:29.071Z,99.90
2022-09-12T16:41:55.691Z,99.90
2022-09-12T16:44:22.351Z,99.90
2022-09-12T16:49:17.425Z,99.90
2022-09-12T16:51:47.484Z,99.90
2022-09-12T16:54:15.756Z,99.90
2022-09-12T16:56:42.530Z,99.90
2022-09-12T16:59:12.116Z,99.90
2022-09-12T17:01:38.837Z,99.90
2022-09-12T17:04:05.612Z,99.90
2022-09-12T17:06:32.834Z,99.90
2022-09-12T17:09:04.480Z,99.90
2022-09-12T17:11:38.324Z,99.90
2022-09-12T17:14:07.773Z,99.90
2022-09-12T17:16:40.044Z,99.90
2022-09-12T17:19:06.892Z,99.90
2022-09-12T17:21:33.740Z,99.90
2022-09-12T17:24:00.356Z,99.90
2022-09-12T17:26:27.074Z,99.90
2022-09-12T17:28:53.762Z,99.90
2022-09-12T17:31:20.679Z,99.90
2022-09-12T17:33:47.638Z,99.90
2022-09-12T17:36:16.325Z,99.90
2022-09-12T17:41:18.549Z,99.90
2022-09-12T17:43:50.827Z,99.90
2022-09-12T17:46:20.745Z,99.90
2022-09-12T17:48:54.679Z,99.90
2022-09-12T17:51:22.158Z,99.90
2022-09-12T17:53:48.983Z,99.90
2022-09-12T17:56:17.606Z,99.90
2022-09-12T18:01:33.524Z,99.90
2022-09-12T18:04:00.729Z,99.90
2022-09-12T18:06:30.978Z,99.90
2022-09-12T18:09:05.388Z,99.90
2022-09-12T18:11:32.145Z,99.90
2022-09-12T18:13:59.388Z,99.90
2022-09-12T18:16:26.213Z,99.90
2022-09-12T18:18:52.926Z,99.90
2022-09-12T18:21:19.865Z,99.90
2022-09-12T18:26:14.289Z,99.90
2022-09-12T18:28:42.519Z,99.90
2022-09-12T18:31:19.499Z,99.90
2022-09-12T18:33:46.397Z,99.90
2022-09-12T18:36:13.582Z,99.90
2022-09-12T18:38:40.471Z,99.90
2022-09-12T18:41:10.863Z,99.90
2022-09-12T18:43:37.569Z,99.90
2022-09-12T18:46:05.356Z,99.90
2022-09-12T18:48:32.559Z,99.90
2022-09-12T18:51:10.407Z,99.90
2022-09-12T18:53:37.373Z,99.90
2022-09-12T18:56:08.707Z,99.90
2022-09-12T18:58:38.482Z,99.90
2022-09-12T19:01:15.604Z,99.90
2022-09-12T19:03:42.524Z,99.90
2022-09-12T19:06:13.584Z,99.90
2022-09-12T19:08:40.618Z,99.90
2022-09-12T19:11:07.849Z,99.90
2022-09-12T19:13:38.570Z,99.90
2022-09-12T19:16:06.255Z,99.90
2022-09-12T19:18:34.004Z,99.90
2022-09-12T19:21:01.434Z,99.90
2022-09-12T19:23:32.159Z,99.90
2022-09-12T19:25:59.668Z,99.90
2022-09-12T19:28:26.397Z,99.90
2022-09-12T19:30:53.526Z,99.90
2022-09-12T19:33:20.742Z,99.90
2022-09-12T19:35:47.660Z,99.90
2022-09-12T19:40:41.988Z,99.90
2022-09-12T19:43:08.674Z,99.90
2022-09-12T19:50:32.129Z,99.90
2022-09-12T19:52:58.798Z,99.90
2022-09-12T20:00:19.768Z,99.90
2022-09-12T20:02:50.518Z,99.90
2022-09-12T20:12:38.524Z,99.90
2022-09-12T20:17:32.755Z,99.90
2022-09-12T20:24:53.551Z,99.90
2022-09-12T20:37:08.895Z,99.90
2022-09-12T20:39:35.497Z,99.90
2022-09-12T20:42:02.135Z,99.90
2022-09-12T20:44:30.217Z,99.90
2022-09-12T20:46:57.346Z,99.90
2022-09-12T20:51:51.324Z,99.90
2022-09-12T20:54:17.989Z,99.90
2022-09-12T20:56:44.627Z,99.90
2022-09-12T20:59:12.098Z,99.90
2022-09-12T21:01:39.018Z,99.90
2022-09-12T21:06:32.935Z,99.90
2022-09-12T21:09:00.466Z,99.90
2022-09-12T21:13:55.058Z,99.90
2022-09-12T21:16:22.766Z,99.90
2022-09-12T21:18:56.825Z,99.90
2022-09-12T21:21:23.685Z,99.90
2022-09-12T21:26:18.285Z,99.90
2022-09-12T21:31:12.209Z,99.90
2022-09-12T21:33:39.145Z,99.90
2022-09-12T21:36:06.080Z,99.90
2022-09-12T21:38:32.831Z,99.90
2022-09-12T21:41:05.466Z,99.90
2022-09-12T21:48:26.801Z,99.90
2022-09-12T21:50:53.622Z,99.90
2022-09-12T21:53:20.274Z,99.90
2022-09-12T21:55:47.016Z,99.90
2022-09-12T21:58:13.749Z,99.90
2022-09-12T22:03:10.373Z,99.90
2022-09-12T22:05:40.274Z,99.90
2022-09-12T22:08:07.896Z,99.90
2022-09-12T22:13:01.924Z,99.90
2022-09-12T22:15:44.362Z,99.90
2022-09-12T22:18:11.882Z,99.90
2022-09-12T22:20:38.750Z,99.90
2022-09-12T22:23:25.180Z,99.90
2022-09-12T22:25:54.323Z,99.90
2022-09-12T22:28:21.346Z,99.90
2022-09-12T22:30:48.568Z,99.90
2022-09-12T22:45:32.379Z,99.90
2022-09-12T22:48:00.816Z,99.90
2022-09-12T22:55:22.611Z,99.90
2022-09-12T23:05:13.156Z,99.90
2022-09-12T23:10:07.829Z,99.90
2022-09-12T23:12:34.512Z,99.90
2022-09-12T23:17:28.268Z,99.90
2022-09-12T23:24:49.305Z,99.90
2022-09-12T23:29:43.397Z,99.90
2022-09-12T23:34:37.655Z,99.90
2022-09-12T23:37:04.403Z,99.90
2022-09-12T23:41:58.857Z,99.90
2022-09-12T23:44:25.482Z,99.90
2022-09-12T23:54:14.111Z,99.90
2022-09-12T23:56:40.813Z,99.90
2022-09-12T23:59:07.683Z,99.90
